sensor_id;sensor_type;location;lat;lon;timestamp;P1;durP1;ratioP1;P2;durP2;ratioP2
43646;SDS011;56152;49.996;18.980;2023-04-06T00:01:07;41.87;;;18.47;;
43646;SDS011;56152;49.996;18.980;2023-04-06T00:06:11;38.90;;;17.80;;
43646;SDS011;56152;49.996;18.980;2023-04-06T00:11:16;45.33;;;18.80;;
43646;SDS011;56152;49.996;18.980;2023-04-06T00:16:18;41.80;;;16.93;;
43646;SDS011;56152;49.996;18.980;2023-04-06T00:21:22;39.67;;;19.10;;
43646;SDS011;56152;49.996;18.980;2023-04-06T00:26:25;45.33;;;18.50;;
43646;SDS011;56152;49.996;18.980;2023-04-06T00:31:27;45.00;;;18.93;;
43646;SDS011;56152;49.996;18.980;2023-04-06T00:36:31;46.23;;;20.23;;
43646;SDS011;56152;49.996;18.980;2023-04-06T00:41:33;51.30;;;19.57;;
43646;SDS011;56152;49.996;18.980;2023-04-06T00:46:40;48.10;;;19.17;;
43646;SDS011;56152;49.996;18.980;2023-04-06T00:51:43;51.00;;;21.27;;
43646;SDS011;56152;49.996;18.980;2023-04-06T00:56:48;43.33;;;18.03;;
43646;SDS011;56152;49.996;18.980;2023-04-06T01:01:50;38.70;;;17.57;;
43646;SDS011;56152;49.996;18.980;2023-04-06T01:06:54;34.03;;;17.27;;
43646;SDS011;56152;49.996;18.980;2023-04-06T01:11:58;39.90;;;18.00;;
43646;SDS011;56152;49.996;18.980;2023-04-06T01:17:00;43.07;;;19.47;;
43646;SDS011;56152;49.996;18.980;2023-04-06T01:22:04;39.93;;;19.30;;
43646;SDS011;56152;49.996;18.980;2023-04-06T01:27:08;35.87;;;17.73;;
43646;SDS011;56152;49.996;18.980;2023-04-06T01:32:14;34.70;;;16.63;;
43646;SDS011;56152;49.996;18.980;2023-04-06T01:37:16;35.77;;;17.23;;
43646;SDS011;56152;49.996;18.980;2023-04-06T01:42:20;42.17;;;17.13;;
43646;SDS011;56152;49.996;18.980;2023-04-06T01:47:22;44.03;;;18.57;;
43646;SDS011;56152;49.996;18.980;2023-04-06T01:52:24;36.40;;;16.43;;
43646;SDS011;56152;49.996;18.980;2023-04-06T01:57:28;40.97;;;16.93;;
43646;SDS011;56152;49.996;18.980;2023-04-06T02:02:30;38.07;;;19.23;;
43646;SDS011;56152;49.996;18.980;2023-04-06T02:07:32;40.90;;;19.53;;
43646;SDS011;56152;49.996;18.980;2023-04-06T02:12:36;48.77;;;22.17;;
43646;SDS011;56152;49.996;18.980;2023-04-06T02:17:38;48.00;;;17.70;;
43646;SDS011;56152;49.996;18.980;2023-04-06T02:22:40;40.03;;;16.17;;
43646;SDS011;56152;49.996;18.980;2023-04-06T02:27:44;49.90;;;21.50;;
43646;SDS011;56152;49.996;18.980;2023-04-06T02:32:46;39.23;;;17.47;;
43646;SDS011;56152;49.996;18.980;2023-04-06T02:37:53;50.57;;;20.57;;
43646;SDS011;56152;49.996;18.980;2023-04-06T02:42:57;45.40;;;20.47;;
43646;SDS011;56152;49.996;18.980;2023-04-06T02:47:59;50.70;;;20.93;;
43646;SDS011;56152;49.996;18.980;2023-04-06T02:53:01;45.00;;;20.33;;
43646;SDS011;56152;49.996;18.980;2023-04-06T02:58:05;45.50;;;20.40;;
43646;SDS011;56152;49.996;18.980;2023-04-06T03:03:07;38.67;;;16.83;;
43646;SDS011;56152;49.996;18.980;2023-04-06T03:08:08;48.00;;;18.80;;
43646;SDS011;56152;49.996;18.980;2023-04-06T03:13:13;64.77;;;22.87;;
43646;SDS011;56152;49.996;18.980;2023-04-06T03:18:20;55.07;;;20.43;;
43646;SDS011;56152;49.996;18.980;2023-04-06T03:23:23;45.10;;;18.67;;
43646;SDS011;56152;49.996;18.980;2023-04-06T03:28:27;33.37;;;16.87;;
43646;SDS011;56152;49.996;18.980;2023-04-06T03:33:30;37.03;;;17.53;;
43646;SDS011;56152;49.996;18.980;2023-04-06T03:38:33;40.17;;;16.70;;
43646;SDS011;56152;49.996;18.980;2023-04-06T03:43:37;39.57;;;17.87;;
43646;SDS011;56152;49.996;18.980;2023-04-06T03:48:39;50.50;;;18.97;;
43646;SDS011;56152;49.996;18.980;2023-04-06T03:53:44;43.93;;;19.83;;
43646;SDS011;56152;49.996;18.980;2023-04-06T03:58:51;45.63;;;19.27;;
43646;SDS011;56152;49.996;18.980;2023-04-06T04:03:55;44.70;;;21.07;;
43646;SDS011;56152;49.996;18.980;2023-04-06T04:09:03;47.50;;;19.97;;
43646;SDS011;56152;49.996;18.980;2023-04-06T04:14:11;43.80;;;18.87;;
43646;SDS011;56152;49.996;18.980;2023-04-06T04:19:13;44.03;;;20.53;;
43646;SDS011;56152;49.996;18.980;2023-04-06T04:24:15;40.50;;;17.27;;
43646;SDS011;56152;49.996;18.980;2023-04-06T04:29:19;39.17;;;17.40;;
43646;SDS011;56152;49.996;18.980;2023-04-06T04:34:22;38.93;;;19.93;;
43646;SDS011;56152;49.996;18.980;2023-04-06T04:39:28;40.40;;;18.90;;
43646;SDS011;56152;49.996;18.980;2023-04-06T04:44:31;51.73;;;21.03;;
43646;SDS011;56152;49.996;18.980;2023-04-06T04:49:47;39.80;;;19.47;;
43646;SDS011;56152;49.996;18.980;2023-04-06T04:54:49;44.60;;;21.40;;
43646;SDS011;56152;49.996;18.980;2023-04-06T04:59:57;48.87;;;20.70;;
43646;SDS011;56152;49.996;18.980;2023-04-06T05:04:59;34.30;;;17.47;;
43646;SDS011;56152;49.996;18.980;2023-04-06T05:10:01;34.23;;;17.37;;
43646;SDS011;56152;49.996;18.980;2023-04-06T05:15:07;29.97;;;15.30;;
43646;SDS011;56152;49.996;18.980;2023-04-06T05:20:11;38.63;;;16.70;;
43646;SDS011;56152;49.996;18.980;2023-04-06T05:25:13;43.83;;;23.17;;
43646;SDS011;56152;49.996;18.980;2023-04-06T05:30:18;44.37;;;20.50;;
43646;SDS011;56152;49.996;18.980;2023-04-06T05:35:22;44.33;;;21.00;;
43646;SDS011;56152;49.996;18.980;2023-04-06T05:40:25;42.60;;;20.00;;
43646;SDS011;56152;49.996;18.980;2023-04-06T05:45:31;43.30;;;20.67;;
43646;SDS011;56152;49.996;18.980;2023-04-06T05:50:33;39.80;;;19.33;;
43646;SDS011;56152;49.996;18.980;2023-04-06T05:55:38;43.57;;;21.03;;
43646;SDS011;56152;49.996;18.980;2023-04-06T06:00:41;42.27;;;20.77;;
43646;SDS011;56152;49.996;18.980;2023-04-06T06:05:45;47.77;;;21.20;;
43646;SDS011;56152;49.996;18.980;2023-04-06T06:10:47;55.83;;;23.33;;
43646;SDS011;56152;49.996;18.980;2023-04-06T06:15:51;41.10;;;18.43;;
43646;SDS011;56152;49.996;18.980;2023-04-06T06:20:53;27.57;;;15.13;;
43646;SDS011;56152;49.996;18.980;2023-04-06T06:25:58;33.57;;;16.03;;
43646;SDS011;56152;49.996;18.980;2023-04-06T06:31:03;31.97;;;15.57;;
43646;SDS011;56152;49.996;18.980;2023-04-06T06:36:05;23.70;;;13.77;;
43646;SDS011;56152;49.996;18.980;2023-04-06T06:41:07;26.30;;;14.57;;
43646;SDS011;56152;49.996;18.980;2023-04-06T06:46:12;30.93;;;15.10;;
43646;SDS011;56152;49.996;18.980;2023-04-06T06:51:14;22.87;;;12.10;;
43646;SDS011;56152;49.996;18.980;2023-04-06T06:56:19;35.20;;;13.93;;
43646;SDS011;56152;49.996;18.980;2023-04-06T07:01:24;35.70;;;14.53;;
43646;SDS011;56152;49.996;18.980;2023-04-06T07:06:26;42.97;;;16.30;;
43646;SDS011;56152;49.996;18.980;2023-04-06T07:11:28;42.47;;;15.13;;
43646;SDS011;56152;49.996;18.980;2023-04-06T07:16:32;27.27;;;12.43;;
43646;SDS011;56152;49.996;18.980;2023-04-06T07:21:34;34.87;;;14.37;;
43646;SDS011;56152;49.996;18.980;2023-04-06T07:26:36;19.77;;;9.57;;
43646;SDS011;56152;49.996;18.980;2023-04-06T07:31:40;19.90;;;9.68;;
43646;SDS011;56152;49.996;18.980;2023-04-06T07:36:42;16.97;;;8.37;;
43646;SDS011;56152;49.996;18.980;2023-04-06T07:41:46;20.80;;;10.77;;
43646;SDS011;56152;49.996;18.980;2023-04-06T07:46:53;54.17;;;21.85;;
43646;SDS011;56152;49.996;18.980;2023-04-06T07:51:55;54.90;;;19.50;;
43646;SDS011;56152;49.996;18.980;2023-04-06T07:56:57;42.58;;;17.17;;
43646;SDS011;56152;49.996;18.980;2023-04-06T08:02:01;49.53;;;16.67;;
43646;SDS011;56152;49.996;18.980;2023-04-06T08:07:06;39.15;;;17.58;;
43646;SDS011;56152;49.996;18.980;2023-04-06T08:12:08;38.30;;;15.00;;
43646;SDS011;56152;49.996;18.980;2023-04-06T08:17:12;36.72;;;15.98;;
43646;SDS011;56152;49.996;18.980;2023-04-06T08:22:14;28.42;;;12.18;;
43646;SDS011;56152;49.996;18.980;2023-04-06T08:27:16;26.60;;;12.95;;
43646;SDS011;56152;49.996;18.980;2023-04-06T08:32:22;14.25;;;8.32;;
43646;SDS011;56152;49.996;18.980;2023-04-06T08:37:24;19.52;;;9.25;;
43646;SDS011;56152;49.996;18.980;2023-04-06T08:42:27;16.38;;;8.48;;
43646;SDS011;56152;49.996;18.980;2023-04-06T08:47:35;17.02;;;9.50;;
43646;SDS011;56152;49.996;18.980;2023-04-06T08:52:38;11.27;;;7.03;;
43646;SDS011;56152;49.996;18.980;2023-04-06T08:57:42;17.80;;;8.07;;
43646;SDS011;56152;49.996;18.980;2023-04-06T09:02:49;28.42;;;13.55;;
43646;SDS011;56152;49.996;18.980;2023-04-06T09:07:54;35.92;;;14.75;;
43646;SDS011;56152;49.996;18.980;2023-04-06T09:13:02;25.77;;;11.30;;
43646;SDS011;56152;49.996;18.980;2023-04-06T09:18:09;30.67;;;12.52;;
43646;SDS011;56152;49.996;18.980;2023-04-06T09:23:17;27.30;;;12.65;;
43646;SDS011;56152;49.996;18.980;2023-04-06T09:28:19;14.70;;;8.32;;
43646;SDS011;56152;49.996;18.980;2023-04-06T09:33:25;16.88;;;10.13;;
43646;SDS011;56152;49.996;18.980;2023-04-06T09:38:27;18.95;;;7.60;;
43646;SDS011;56152;49.996;18.980;2023-04-06T09:43:29;15.90;;;7.78;;
43646;SDS011;56152;49.996;18.980;2023-04-06T09:48:34;12.57;;;7.30;;
43646;SDS011;56152;49.996;18.980;2023-04-06T09:53:38;13.00;;;6.82;;
43646;SDS011;56152;49.996;18.980;2023-04-06T09:58:44;10.40;;;6.55;;
43646;SDS011;56152;49.996;18.980;2023-04-06T10:03:52;15.15;;;9.02;;
43646;SDS011;56152;49.996;18.980;2023-04-06T10:09:01;14.65;;;10.32;;
43646;SDS011;56152;49.996;18.980;2023-04-06T10:14:05;14.13;;;7.88;;
43646;SDS011;56152;49.996;18.980;2023-04-06T10:19:12;12.30;;;7.88;;
43646;SDS011;56152;49.996;18.980;2023-04-06T10:24:18;22.80;;;12.18;;
43646;SDS011;56152;49.996;18.980;2023-04-06T10:29:20;17.05;;;9.85;;
43646;SDS011;56152;49.996;18.980;2023-04-06T10:34:35;17.35;;;8.27;;
43646;SDS011;56152;49.996;18.980;2023-04-06T10:39:45;17.27;;;9.38;;
43646;SDS011;56152;49.996;18.980;2023-04-06T10:44:49;19.27;;;10.80;;
43646;SDS011;56152;49.996;18.980;2023-04-06T10:50:00;17.45;;;9.60;;
43646;SDS011;56152;49.996;18.980;2023-04-06T10:55:04;12.90;;;8.85;;
43646;SDS011;56152;49.996;18.980;2023-04-06T11:00:08;16.38;;;8.93;;
43646;SDS011;56152;49.996;18.980;2023-04-06T11:05:15;16.83;;;9.10;;
43646;SDS011;56152;49.996;18.980;2023-04-06T11:10:20;18.75;;;9.77;;
43646;SDS011;56152;49.996;18.980;2023-04-06T11:15:23;19.42;;;10.38;;
43646;SDS011;56152;49.996;18.980;2023-04-06T11:20:27;17.42;;;10.48;;
43646;SDS011;56152;49.996;18.980;2023-04-06T11:25:30;18.13;;;10.43;;
43646;SDS011;56152;49.996;18.980;2023-04-06T11:30:34;21.15;;;10.02;;
43646;SDS011;56152;49.996;18.980;2023-04-06T11:35:40;15.95;;;10.10;;
43646;SDS011;56152;49.996;18.980;2023-04-06T11:40:52;22.55;;;10.98;;
43646;SDS011;56152;49.996;18.980;2023-04-06T11:46:01;27.17;;;16.35;;
43646;SDS011;56152;49.996;18.980;2023-04-06T11:56:09;16.35;;;9.93;;
43646;SDS011;56152;49.996;18.980;2023-04-06T12:01:13;18.77;;;12.40;;
43646;SDS011;56152;49.996;18.980;2023-04-06T12:06:19;16.77;;;8.55;;
43646;SDS011;56152;49.996;18.980;2023-04-06T12:11:22;22.83;;;13.00;;
43646;SDS011;56152;49.996;18.980;2023-04-06T12:16:26;47.38;;;25.45;;
43646;SDS011;56152;49.996;18.980;2023-04-06T12:21:34;20.70;;;10.23;;
43646;SDS011;56152;49.996;18.980;2023-04-06T12:26:37;23.13;;;11.40;;
43646;SDS011;56152;49.996;18.980;2023-04-06T12:31:41;16.25;;;9.82;;
43646;SDS011;56152;49.996;18.980;2023-04-06T12:36:47;35.30;;;15.48;;
43646;SDS011;56152;49.996;18.980;2023-04-06T12:41:49;27.35;;;12.98;;
43646;SDS011;56152;49.996;18.980;2023-04-06T12:46:52;21.98;;;10.55;;
43646;SDS011;56152;49.996;18.980;2023-04-06T12:51:56;64.32;;;26.23;;
43646;SDS011;56152;49.996;18.980;2023-04-06T12:57:02;18.27;;;8.82;;
43646;SDS011;56152;49.996;18.980;2023-04-06T13:02:04;17.27;;;10.25;;
43646;SDS011;56152;49.996;18.980;2023-04-06T13:07:11;14.88;;;9.52;;
43646;SDS011;56152;49.996;18.980;2023-04-06T13:12:17;17.75;;;10.32;;
43646;SDS011;56152;49.996;18.980;2023-04-06T13:17:21;12.05;;;7.53;;
43646;SDS011;56152;49.996;18.980;2023-04-06T13:22:27;15.82;;;9.38;;
43646;SDS011;56152;49.996;18.980;2023-04-06T13:27:30;13.65;;;7.18;;
43646;SDS011;56152;49.996;18.980;2023-04-06T13:32:37;16.85;;;9.07;;
43646;SDS011;56152;49.996;18.980;2023-04-06T13:37:43;13.13;;;8.27;;
43646;SDS011;56152;49.996;18.980;2023-04-06T13:42:47;14.68;;;7.97;;
43646;SDS011;56152;49.996;18.980;2023-04-06T13:47:50;18.52;;;9.90;;
43646;SDS011;56152;49.996;18.980;2023-04-06T13:52:56;20.80;;;15.80;;
43646;SDS011;56152;49.996;18.980;2023-04-06T13:57:59;16.73;;;9.10;;
43646;SDS011;56152;49.996;18.980;2023-04-06T14:03:04;22.40;;;14.15;;
43646;SDS011;56152;49.996;18.980;2023-04-06T14:08:09;12.43;;;8.60;;
43646;SDS011;56152;49.996;18.980;2023-04-06T14:13:11;14.57;;;10.25;;
43646;SDS011;56152;49.996;18.980;2023-04-06T14:18:16;20.77;;;13.27;;
43646;SDS011;56152;49.996;18.980;2023-04-06T14:23:21;18.20;;;12.45;;
43646;SDS011;56152;49.996;18.980;2023-04-06T14:28:23;19.93;;;12.23;;
43646;SDS011;56152;49.996;18.980;2023-04-06T14:33:29;15.95;;;9.60;;
43646;SDS011;56152;49.996;18.980;2023-04-06T14:38:35;14.38;;;10.00;;
43646;SDS011;56152;49.996;18.980;2023-04-06T14:43:39;13.55;;;8.25;;
43646;SDS011;56152;49.996;18.980;2023-04-06T14:48:45;28.83;;;16.97;;
43646;SDS011;56152;49.996;18.980;2023-04-06T14:53:50;20.85;;;12.75;;
43646;SDS011;56152;49.996;18.980;2023-04-06T14:58:56;41.93;;;27.53;;
43646;SDS011;56152;49.996;18.980;2023-04-06T15:03:59;30.00;;;19.90;;
43646;SDS011;56152;49.996;18.980;2023-04-06T15:09:04;21.05;;;14.05;;
43646;SDS011;56152;49.996;18.980;2023-04-06T15:14:06;19.80;;;12.98;;
43646;SDS011;56152;49.996;18.980;2023-04-06T15:19:08;19.87;;;12.70;;
43646;SDS011;56152;49.996;18.980;2023-04-06T15:24:15;15.40;;;10.85;;
43646;SDS011;56152;49.996;18.980;2023-04-06T15:29:18;17.70;;;11.63;;
43646;SDS011;56152;49.996;18.980;2023-04-06T15:34:22;25.30;;;15.27;;
43646;SDS011;56152;49.996;18.980;2023-04-06T15:39:28;29.67;;;15.43;;
43646;SDS011;56152;49.996;18.980;2023-04-06T15:44:31;25.17;;;15.27;;
43646;SDS011;56152;49.996;18.980;2023-04-06T15:49:34;24.83;;;13.63;;
43646;SDS011;56152;49.996;18.980;2023-04-06T15:54:38;20.10;;;12.93;;
43646;SDS011;56152;49.996;18.980;2023-04-06T15:59:41;42.08;;;20.50;;
43646;SDS011;56152;49.996;18.980;2023-04-06T16:04:44;44.67;;;27.27;;
43646;SDS011;56152;49.996;18.980;2023-04-06T16:09:49;41.50;;;23.93;;
43646;SDS011;56152;49.996;18.980;2023-04-06T16:14:51;42.13;;;24.57;;
43646;SDS011;56152;49.996;18.980;2023-04-06T16:19:55;27.90;;;18.30;;
43646;SDS011;56152;49.996;18.980;2023-04-06T16:25:01;29.90;;;16.60;;
43646;SDS011;56152;49.996;18.980;2023-04-06T16:30:03;32.73;;;19.23;;
43646;SDS011;56152;49.996;18.980;2023-04-06T16:35:08;26.33;;;15.83;;
43646;SDS011;56152;49.996;18.980;2023-04-06T16:40:13;23.77;;;15.73;;
43646;SDS011;56152;49.996;18.980;2023-04-06T16:45:16;30.57;;;18.20;;
43646;SDS011;56152;49.996;18.980;2023-04-06T16:50:20;34.27;;;20.77;;
43646;SDS011;56152;49.996;18.980;2023-04-06T16:55:27;57.23;;;31.77;;
43646;SDS011;56152;49.996;18.980;2023-04-06T17:00:30;48.77;;;26.87;;
43646;SDS011;56152;49.996;18.980;2023-04-06T17:05:34;42.67;;;24.47;;
43646;SDS011;56152;49.996;18.980;2023-04-06T17:10:42;39.43;;;25.37;;
43646;SDS011;56152;49.996;18.980;2023-04-06T17:15:44;41.30;;;23.00;;
43646;SDS011;56152;49.996;18.980;2023-04-06T17:20:47;44.03;;;27.57;;
43646;SDS011;56152;49.996;18.980;2023-04-06T17:25:52;65.17;;;36.07;;
43646;SDS011;56152;49.996;18.980;2023-04-06T17:30:55;60.07;;;34.87;;
43646;SDS011;56152;49.996;18.980;2023-04-06T17:35:58;49.90;;;28.50;;
43646;SDS011;56152;49.996;18.980;2023-04-06T17:41:04;71.10;;;38.17;;
43646;SDS011;56152;49.996;18.980;2023-04-06T17:46:06;62.33;;;38.63;;
43646;SDS011;56152;49.996;18.980;2023-04-06T17:51:12;42.33;;;22.27;;
43646;SDS011;56152;49.996;18.980;2023-04-06T17:56:16;41.23;;;25.00;;
43646;SDS011;56152;49.996;18.980;2023-04-06T18:01:23;51.30;;;33.77;;
43646;SDS011;56152;49.996;18.980;2023-04-06T18:06:31;54.33;;;29.10;;
43646;SDS011;56152;49.996;18.980;2023-04-06T18:11:36;63.27;;;34.67;;
43646;SDS011;56152;49.996;18.980;2023-04-06T18:16:51;61.90;;;35.97;;
43646;SDS011;56152;49.996;18.980;2023-04-06T18:21:56;57.87;;;31.17;;
43646;SDS011;56152;49.996;18.980;2023-04-06T18:27:14;95.37;;;43.43;;
43646;SDS011;56152;49.996;18.980;2023-04-06T18:32:20;77.07;;;37.37;;
43646;SDS011;56152;49.996;18.980;2023-04-06T18:37:29;84.73;;;43.47;;
43646;SDS011;56152;49.996;18.980;2023-04-06T18:42:35;107.13;;;50.47;;
43646;SDS011;56152;49.996;18.980;2023-04-06T18:47:39;106.17;;;51.00;;
43646;SDS011;56152;49.996;18.980;2023-04-06T18:52:43;76.90;;;39.90;;
43646;SDS011;56152;49.996;18.980;2023-04-06T18:57:48;52.77;;;33.37;;
43646;SDS011;56152;49.996;18.980;2023-04-06T19:02:53;80.10;;;44.63;;
43646;SDS011;56152;49.996;18.980;2023-04-06T19:07:57;48.00;;;28.77;;
43646;SDS011;56152;49.996;18.980;2023-04-06T19:13:03;35.60;;;24.00;;
43646;SDS011;56152;49.996;18.980;2023-04-06T19:18:06;37.73;;;23.67;;
43646;SDS011;56152;49.996;18.980;2023-04-06T19:23:08;66.20;;;37.13;;
43646;SDS011;56152;49.996;18.980;2023-04-06T19:28:12;66.87;;;37.90;;
43646;SDS011;56152;49.996;18.980;2023-04-06T19:33:16;67.00;;;37.70;;
43646;SDS011;56152;49.996;18.980;2023-04-06T19:38:18;56.23;;;29.53;;
43646;SDS011;56152;49.996;18.980;2023-04-06T19:43:23;67.80;;;40.73;;
43646;SDS011;56152;49.996;18.980;2023-04-06T19:48:26;48.87;;;28.83;;
43646;SDS011;56152;49.996;18.980;2023-04-06T19:53:28;70.37;;;36.70;;
43646;SDS011;56152;49.996;18.980;2023-04-06T19:58:34;57.53;;;34.67;;
43646;SDS011;56152;49.996;18.980;2023-04-06T20:03:44;53.57;;;34.37;;
43646;SDS011;56152;49.996;18.980;2023-04-06T20:08:46;63.30;;;37.13;;
43646;SDS011;56152;49.996;18.980;2023-04-06T20:13:52;65.73;;;40.73;;
43646;SDS011;56152;49.996;18.980;2023-04-06T20:18:54;69.23;;;40.73;;
43646;SDS011;56152;49.996;18.980;2023-04-06T20:23:57;59.57;;;38.87;;
43646;SDS011;56152;49.996;18.980;2023-04-06T20:29:02;64.63;;;38.70;;
43646;SDS011;56152;49.996;18.980;2023-04-06T20:34:04;68.70;;;41.20;;
43646;SDS011;56152;49.996;18.980;2023-04-06T20:39:07;62.57;;;37.13;;
43646;SDS011;56152;49.996;18.980;2023-04-06T20:44:14;60.20;;;36.07;;
43646;SDS011;56152;49.996;18.980;2023-04-06T20:49:16;52.27;;;32.37;;
43646;SDS011;56152;49.996;18.980;2023-04-06T20:54:22;53.80;;;32.23;;
43646;SDS011;56152;49.996;18.980;2023-04-06T20:59:26;61.40;;;37.40;;
43646;SDS011;56152;49.996;18.980;2023-04-06T21:04:29;61.03;;;38.10;;
43646;SDS011;56152;49.996;18.980;2023-04-06T21:09:32;60.77;;;38.40;;
43646;SDS011;56152;49.996;18.980;2023-04-06T21:14:38;68.60;;;38.80;;
43646;SDS011;56152;49.996;18.980;2023-04-06T21:19:40;64.07;;;37.27;;
43646;SDS011;56152;49.996;18.980;2023-04-06T21:24:51;62.90;;;36.13;;
43646;SDS011;56152;49.996;18.980;2023-04-06T21:29:56;80.90;;;42.90;;
43646;SDS011;56152;49.996;18.980;2023-04-06T21:35:00;76.50;;;41.47;;
43646;SDS011;56152;49.996;18.980;2023-04-06T21:40:02;63.57;;;38.47;;
43646;SDS011;56152;49.996;18.980;2023-04-06T21:45:07;66.97;;;41.03;;
43646;SDS011;56152;49.996;18.980;2023-04-06T21:50:24;67.60;;;38.90;;
43646;SDS011;56152;49.996;18.980;2023-04-06T21:55:29;63.43;;;37.87;;
43646;SDS011;56152;49.996;18.980;2023-04-06T22:00:33;71.40;;;42.17;;
43646;SDS011;56152;49.996;18.980;2023-04-06T22:05:35;83.13;;;47.53;;
43646;SDS011;56152;49.996;18.980;2023-04-06T22:10:43;83.63;;;45.97;;
43646;SDS011;56152;49.996;18.980;2023-04-06T22:15:53;78.07;;;42.00;;
43646;SDS011;56152;49.996;18.980;2023-04-06T22:20:57;67.10;;;38.80;;
43646;SDS011;56152;49.996;18.980;2023-04-06T22:26:00;76.03;;;43.47;;
43646;SDS011;56152;49.996;18.980;2023-04-06T22:31:04;61.17;;;38.73;;
43646;SDS011;56152;49.996;18.980;2023-04-06T22:36:06;68.20;;;39.53;;
43646;SDS011;56152;49.996;18.980;2023-04-06T22:41:08;75.03;;;44.30;;
43646;SDS011;56152;49.996;18.980;2023-04-06T22:46:12;89.67;;;46.67;;
43646;SDS011;56152;49.996;18.980;2023-04-06T22:51:15;85.43;;;50.47;;
43646;SDS011;56152;49.996;18.980;2023-04-06T22:56:17;88.53;;;47.70;;
43646;SDS011;56152;49.996;18.980;2023-04-06T23:01:26;76.57;;;39.33;;
43646;SDS011;56152;49.996;18.980;2023-04-06T23:06:29;73.37;;;39.33;;
43646;SDS011;56152;49.996;18.980;2023-04-06T23:11:32;86.60;;;47.03;;
43646;SDS011;56152;49.996;18.980;2023-04-06T23:16:38;83.07;;;49.53;;
43646;SDS011;56152;49.996;18.980;2023-04-06T23:21:40;78.13;;;42.20;;
43646;SDS011;56152;49.996;18.980;2023-04-06T23:26:43;86.63;;;44.10;;
43646;SDS011;56152;49.996;18.980;2023-04-06T23:31:47;76.77;;;42.53;;
43646;SDS011;56152;49.996;18.980;2023-04-06T23:36:50;80.57;;;46.87;;
43646;SDS011;56152;49.996;18.980;2023-04-06T23:41:54;69.47;;;40.83;;
43646;SDS011;56152;49.996;18.980;2023-04-06T23:46:58;74.13;;;42.07;;
43646;SDS011;56152;49.996;18.980;2023-04-06T23:52:01;71.97;;;43.10;;
43646;SDS011;56152;49.996;18.980;2023-04-06T23:57:03;65.47;;;42.07;;
